Time;durP1;ratioP1;P1;durP2;ratioP2;P2;SDS_P1;SDS_P2;PMS_P1;PMS_P2;Temp;Humidity;BMP_temperature;BMP_pressure;BME280_temperature;BME280_humidity;BME280_pressure;Samples;Min_cycle;Max_cycle;Signal;HPM_P1;HPM_P2
2021/08/16 00:00:26;;;;;;;19.98;9.48;;;;;;;25.26;65.26;98152.38;4984649;28;20030;-63
2021/08/16 00:02:51;;;;;;;21.67;9.20;;;;;;;25.32;64.78;98154.03;4982317;28;20456;-63
2021/08/16 00:05:17;;;;;;;20.70;8.90;;;;;;;25.22;65.05;98163.72;4980048;28;20552;-63
2021/08/16 00:07:43;;;;;;;24.25;8.98;;;;;;;25.25;64.57;98155.28;4973672;28;20038;-63
2021/08/16 00:10:10;;;;;;;19.02;8.70;;;;;;;25.07;64.43;98119.16;4973755;28;20098;-63
2021/08/16 00:12:36;;;;;;;22.98;8.70;;;;;;;25.16;64.96;98148.78;4987940;28;20031;-63
2021/08/16 00:15:01;;;;;;;20.88;9.15;;;;;;;25.20;65.03;98137.38;4973758;28;20045;-63
2021/08/16 00:17:27;;;;;;;23.58;9.68;;;;;;;25.10;65.57;98127.44;4976843;28;20134;-63
2021/08/16 00:19:52;;;;;;;22.85;9.57;;;;;;;24.62;65.73;98075.88;4987605;28;20034;-59
2021/08/16 00:22:17;;;;;;;22.67;9.30;;;;;;;25.08;65.78;98142.03;4971821;28;20026;-63
2021/08/16 00:24:43;;;;;;;17.75;8.43;;;;;;;25.06;65.74;98137.00;4980402;28;20093;-63
2021/08/16 00:27:09;;;;;;;21.60;8.98;;;;;;;25.05;66.03;98132.72;4979245;28;20038;-62
2021/08/16 00:29:34;;;;;;;17.13;9.77;;;;;;;25.15;65.91;98129.34;4975982;28;20496;-63
2021/08/16 00:31:59;;;;;;;21.60;9.90;;;;;;;25.13;66.17;98129.63;4982721;28;20038;-63
2021/08/16 00:34:25;;;;;;;18.08;9.25;;;;;;;24.98;66.46;98121.47;4978537;28;20572;-62
2021/08/16 00:36:51;;;;;;;20.38;9.38;;;;;;;25.00;65.86;98126.53;4971927;28;20161;-63
2021/08/16 00:39:17;;;;;;;21.17;9.63;;;;;;;25.04;66.25;98128.44;4975445;28;20031;-63
2021/08/16 00:41:45;;;;;;;22.05;9.90;;;;;;;24.93;66.21;98100.13;4978606;28;20481;-62
2021/08/16 00:44:11;;;;;;;20.93;10.03;;;;;;;25.04;66.50;98138.28;4955663;28;20031;-63
2021/08/16 00:46:37;;;;;;;20.13;9.50;;;;;;;25.07;66.22;98141.25;4970604;28;20035;-63
2021/08/16 00:49:03;;;;;;;21.90;9.80;;;;;;;24.99;66.37;98128.41;4971736;28;20402;-62
2021/08/16 00:51:31;;;;;;;20.38;9.45;;;;;;;25.13;66.34;98145.59;4977381;28;20015;-62
2021/08/16 00:53:57;;;;;;;17.40;9.73;;;;;;;25.13;66.17;98144.75;4972343;28;20061;-63
2021/08/16 00:56:26;;;;;;;19.63;9.07;;;;;;;24.80;66.25;98100.53;4976103;28;20035;-63
2021/08/16 00:58:52;;;;;;;;;;;;;;;25.08;66.48;98139.38;4991736;28;20110;-63
2021/08/16 01:01:18;;;;;;;19.20;9.30;;;;;;;25.10;65.96;98134.63;4967471;28;20408;-63
2021/08/16 01:03:43;;;;;;;18.17;9.05;;;;;;;25.13;66.13;98140.25;4978765;28;20039;-63
2021/08/16 01:06:08;;;;;;;22.42;9.00;;;;;;;25.06;65.66;98123.69;4978798;28;20556;-63
2021/08/16 01:08:34;;;;;;;24.50;9.68;;;;;;;25.00;65.73;98110.59;4980338;28;20061;-63
2021/08/16 01:10:59;;;;;;;21.27;9.68;;;;;;;25.13;65.98;98132.28;4982909;28;20034;-63
2021/08/16 01:13:24;;;;;;;23.50;9.82;;;;;;;25.11;66.51;98150.31;4974185;28;20149;-62
2021/08/16 01:15:59;;;;;;;17.30;9.35;;;;;;;25.02;66.53;98154.47;4971513;28;20043;-63
2021/08/16 01:18:25;;;;;;;25.48;9.80;;;;;;;25.06;65.88;98160.94;4962941;28;20058;-63
2021/08/16 01:20:53;;;;;;;18.40;9.35;;;;;;;24.98;66.20;98163.22;4987125;28;20038;-63
2021/08/16 01:23:20;;;;;;;19.33;9.18;;;;;;;24.62;66.26;98113.09;4971868;28;20038;-63
2021/08/16 01:25:47;;;;;;;22.45;9.05;;;;;;;24.88;66.52;98150.59;4971350;28;20042;-63
2021/08/16 01:28:17;;;;;;;20.65;9.18;;;;;;;24.85;65.51;98105.91;4973025;28;20041;-63
2021/08/16 01:30:44;;;;;;;20.15;9.02;;;;;;;24.92;65.75;98120.63;4973061;28;20117;-63
2021/08/16 01:33:09;;;;;;;17.50;8.93;;;;;;;25.04;65.95;98136.41;4972609;28;20046;-63
2021/08/16 01:35:34;;;;;;;21.00;8.90;;;;;;;24.97;66.00;98113.75;4974836;28;20207;-63
2021/08/16 01:38:00;;;;;;;19.52;9.60;;;;;;;25.03;65.75;98123.41;4978189;28;20509;-62
2021/08/16 01:40:25;;;;;;;21.92;9.45;;;;;;;24.89;66.13;98128.28;4976365;28;20030;-60
2021/08/16 01:42:51;;;;;;;22.33;10.13;;;;;;;24.72;66.87;98123.84;4974800;28;20093;-63
2021/08/16 01:45:16;;;;;;;18.08;10.07;;;;;;;24.62;67.31;98113.09;4975957;28;20054;-63
2021/08/16 01:47:41;;;;;;;20.88;10.00;;;;;;;24.63;68.03;98103.28;4970641;28;20113;-63
2021/08/16 01:50:07;;;;;;;18.80;10.00;;;;;;;24.84;68.24;98139.66;4970951;28;20026;-63
2021/08/16 01:52:33;;;;;;;19.30;9.48;;;;;;;24.65;68.00;98136.53;4985988;28;20116;-63
2021/08/16 01:55:00;;;;;;;18.63;9.43;;;;;;;24.61;68.23;98116.03;4972615;28;20038;-62
2021/08/16 01:57:25;;;;;;;18.40;9.82;;;;;;;24.71;68.21;98087.69;4969342;28;20117;-63
2021/08/16 01:59:50;;;;;;;20.92;9.75;;;;;;;24.83;67.82;98089.41;4970126;28;20038;-62
2021/08/16 02:02:16;;;;;;;20.08;10.15;;;;;;;24.90;67.04;98088.16;4951295;28;20049;-64
2021/08/16 02:04:41;;;;;;;20.27;9.30;;;;;;;24.55;67.06;98041.53;4980970;28;20073;-62
2021/08/16 02:07:06;;;;;;;26.33;10.40;;;;;;;24.50;68.39;98073.34;4977640;28;20030;-62
2021/08/16 02:09:32;;;;;;;19.40;9.63;;;;;;;24.43;68.96;98059.44;4983001;28;20056;-63
2021/08/16 02:11:57;;;;;;;23.20;11.48;;;;;;;24.59;68.67;98049.00;4982912;28;20065;-63
2021/08/16 02:14:22;;;;;;;16.42;10.35;;;;;;;24.54;69.29;98060.38;4982831;28;20377;-63
2021/08/16 02:16:48;;;;;;;21.00;10.85;;;;;;;24.50;69.80;98043.31;4981531;28;20089;-62
2021/08/16 02:19:13;;;;;;;20.65;10.50;;;;;;;24.65;69.52;98053.34;4978093;28;20041;-62
2021/08/16 02:21:39;;;;;;;18.48;9.25;;;;;;;24.74;68.45;98046.53;4964269;28;20078;-64
2021/08/16 02:24:04;;;;;;;18.98;9.90;;;;;;;24.70;68.53;98037.44;4979409;28;20029;-63
2021/08/16 02:26:30;;;;;;;20.15;9.43;;;;;;;24.78;67.78;98036.19;4985420;28;20778;-63
2021/08/16 02:28:55;;;;;;;20.70;9.32;;;;;;;24.73;67.05;98029.78;4981863;28;20037;-64
2021/08/16 02:31:23;;;;;;;21.73;9.40;;;;;;;24.79;66.58;98048.41;4979201;28;20038;-64
2021/08/16 02:33:51;;;;;;;23.27;9.67;;;;;;;24.50;66.56;98019.41;4977051;28;20512;-64
2021/08/16 02:36:16;;;;;;;19.10;9.90;;;;;;;24.55;66.95;98060.16;4979598;28;20035;-60
2021/08/16 02:38:42;;;;;;;20.67;9.45;;;;;;;24.42;68.06;98060.47;4963216;28;20385;-63
2021/08/16 02:41:07;;;;;;;19.70;10.43;;;;;;;24.48;68.71;98042.75;4981005;28;20038;-63
2021/08/16 02:43:32;;;;;;;21.02;10.63;;;;;;;24.51;68.64;98026.31;4997386;28;20397;-63
2021/08/16 02:45:58;;;;;;;20.00;10.05;;;;;;;24.53;68.44;98017.09;4975241;28;20053;-64
2021/08/16 02:48:23;;;;;;;18.45;9.82;;;;;;;24.53;68.61;98014.44;4979693;28;20477;-63
2021/08/16 02:50:48;;;;;;;17.60;10.55;;;;;;;24.55;69.02;98033.56;4992209;28;20022;-64
2021/08/16 02:53:14;;;;;;;20.65;10.13;;;;;;;24.38;68.85;97982.34;4960952;28;20034;-63
2021/08/16 02:55:39;;;;;;;20.15;10.18;;;;;;;24.69;68.59;98017.22;4979297;28;20053;-64
2021/08/16 02:58:05;;;;;;;23.67;10.65;;;;;;;24.65;68.49;98010.81;4984421;28;20026;-65
2021/08/16 03:00:30;;;;;;;22.77;10.35;;;;;;;24.59;68.52;98022.44;4978817;28;20038;-64
2021/08/16 03:02:56;;;;;;;19.48;9.57;;;;;;;24.64;68.37;98047.22;4963259;28;20180;-63
2021/08/16 03:05:21;;;;;;;21.33;9.73;;;;;;;24.68;68.47;98058.13;4977317;28;20027;-63
2021/08/16 03:07:47;;;;;;;23.30;10.20;;;;;;;24.67;68.47;98081.25;4995384;28;20032;-64
2021/08/16 03:10:13;;;;;;;22.20;10.90;;;;;;;24.64;68.25;98095.06;4971206;28;20030;-64
2021/08/16 03:12:38;;;;;;;22.23;10.75;;;;;;;24.45;68.61;98094.53;4968470;28;20110;-64
2021/08/16 03:15:06;;;;;;;19.42;9.68;;;;;;;24.41;69.03;98090.78;4975279;28;20738;-62
2021/08/16 03:17:31;;;;;;;18.13;9.20;;;;;;;24.35;69.12;98081.13;4979659;28;20073;-64
2021/08/16 03:19:56;;;;;;;20.35;11.32;;;;;;;24.25;70.18;98103.03;4983249;28;20413;-65
2021/08/16 03:22:22;;;;;;;23.02;10.50;;;;;;;24.22;70.68;98097.41;4973250;28;20119;-63
2021/08/16 03:24:47;;;;;;;19.17;10.23;;;;;;;24.10;71.05;98077.09;4977624;28;20038;-63
2021/08/16 03:27:13;;;;;;;24.23;11.52;;;;;;;24.08;71.86;98073.09;4962364;28;20093;-63
2021/08/16 03:29:38;;;;;;;24.67;11.48;;;;;;;23.92;73.41;98038.34;4979124;28;20722;-63
2021/08/16 03:32:04;;;;;;;17.95;11.45;;;;;;;24.01;73.54;98036.09;4979178;28;20030;-63
2021/08/16 03:34:29;;;;;;;21.00;11.32;;;;;;;24.00;74.17;98031.81;4980264;28;20026;-64
2021/08/16 03:36:54;;;;;;;21.15;11.38;;;;;;;24.26;74.30;98074.63;4981195;28;20038;-62
2021/08/16 03:39:20;;;;;;;20.23;12.07;;;;;;;24.24;75.22;98066.09;4975289;28;20407;-62
2021/08/16 03:41:45;;;;;;;20.48;12.13;;;;;;;24.21;75.40;98077.25;4976960;28;20141;-63
2021/08/16 03:44:10;;;;;;;16.38;12.10;;;;;;;24.20;75.93;98073.75;4982160;28;20118;-63
2021/08/16 03:46:36;;;;;;;18.85;12.77;;;;;;;24.25;76.13;98073.81;4981756;28;20034;-63
2021/08/16 03:49:01;;;;;;;19.75;13.68;;;;;;;24.30;75.82;98067.78;4981320;28;20038;-63
2021/08/16 03:51:27;;;;;;;18.73;12.05;;;;;;;24.02;75.97;98034.22;4972985;28;20802;-62
2021/08/16 03:53:52;;;;;;;19.45;12.95;;;;;;;24.21;75.84;98074.59;4977864;28;20039;-63
2021/08/16 03:56:18;;;;;;;17.77;12.73;;;;;;;24.15;75.96;98079.03;4979937;28;20129;-63
2021/08/16 03:58:43;;;;;;;18.23;12.80;;;;;;;24.18;75.79;98073.19;4988824;28;20042;-63
2021/08/16 04:01:09;;;;;;;20.92;13.15;;;;;;;23.92;75.57;98026.94;4983430;28;20030;-63
2021/08/16 04:03:35;;;;;;;16.42;13.02;;;;;;;24.24;75.16;98072.25;4976462;28;20030;-63
2021/08/16 04:06:00;;;;;;;17.58;12.70;;;;;;;24.32;75.65;98073.66;4977287;28;20026;-63
2021/08/16 04:08:26;;;;;;;17.55;12.88;;;;;;;23.78;75.36;97998.06;4957548;28;20057;-62
2021/08/16 04:10:51;;;;;;;17.75;12.70;;;;;;;23.97;75.71;98030.47;4974714;28;20113;-63
2021/08/16 04:13:16;;;;;;;15.45;12.00;;;;;;;24.16;75.60;98070.00;4976985;28;20034;-63
2021/08/16 04:15:42;;;;;;;16.80;12.05;;;;;;;24.25;75.52;98071.16;4975748;28;20359;-63
2021/08/16 04:18:07;;;;;;;16.23;11.30;;;;;;;24.14;74.93;98069.44;4979013;28;20034;-63
2021/08/16 04:20:33;;;;;;;14.32;10.57;;;;;;;24.07;75.31;98063.50;4973301;28;20037;-62
2021/08/16 04:22:58;;;;;;;16.67;10.95;;;;;;;24.14;75.15;98069.44;4948288;28;20035;-64
2021/08/16 04:25:24;;;;;;;13.45;10.73;;;;;;;24.16;75.10;98075.31;4978243;28;20018;-63
2021/08/16 04:27:50;;;;;;;12.70;10.10;;;;;;;24.09;75.09;98067.50;4983270;28;20405;-64
2021/08/16 04:30:15;;;;;;;15.48;11.60;;;;;;;24.16;75.86;98076.09;4979601;28;20030;-64
2021/08/16 04:32:41;;;;;;;16.17;12.25;;;;;;;24.21;76.37;98090.53;4993448;28;20074;-63
2021/08/16 04:35:07;;;;;;;17.17;12.27;;;;;;;24.10;76.83;98082.41;4973284;28;20038;-64
2021/08/16 04:37:37;;;;;;;17.25;11.80;;;;;;;23.87;76.81;98038.28;4980944;28;20030;-63
2021/08/16 04:40:03;;;;;;;18.00;12.07;;;;;;;24.25;76.60;98084.47;4975461;28;20077;-63
2021/08/16 04:42:28;;;;;;;17.95;11.85;;;;;;;24.15;76.35;98093.09;4977206;28;20522;-63
2021/08/16 04:44:54;;;;;;;13.48;11.32;;;;;;;24.17;75.96;98101.63;4978749;28;20023;-63
2021/08/16 04:47:19;;;;;;;15.73;11.18;;;;;;;24.10;76.11;98103.66;4976125;28;20033;-63
2021/08/16 04:49:44;;;;;;;18.02;10.88;;;;;;;24.08;75.00;98121.69;4984275;28;20429;-63
2021/08/16 04:52:10;;;;;;;13.40;9.52;;;;;;;23.92;74.13;98120.66;4982573;28;20034;-63
2021/08/16 04:54:35;;;;;;;12.57;8.05;;;;;;;23.93;72.05;98124.09;4981092;28;20041;-62
2021/08/16 04:57:01;;;;;;;11.77;8.50;;;;;;;23.95;71.80;98117.53;4973655;28;20030;-62
2021/08/16 04:59:26;;;;;;;13.10;8.68;;;;;;;23.91;71.59;98116.41;4973420;28;20038;-63
2021/08/16 05:01:51;;;;;;;14.43;9.02;;;;;;;24.02;71.94;98119.19;4973093;28;20488;-63
2021/08/16 05:04:17;;;;;;;14.55;8.68;;;;;;;23.98;71.84;98113.56;4969366;28;20034;-63
2021/08/16 05:06:43;;;;;;;14.98;8.57;;;;;;;24.06;71.68;98128.28;4972896;28;20069;-63
2021/08/16 05:09:09;;;;;;;12.02;7.30;;;;;;;24.09;71.08;98122.47;4969291;28;20133;-63
2021/08/16 05:11:34;;;;;;;10.55;7.03;;;;;;;24.11;70.82;98134.47;4995228;28;20543;-62
2021/08/16 05:14:00;;;;;;;12.30;6.55;;;;;;;24.07;69.92;98138.66;4977848;28;20117;-63
2021/08/16 05:16:25;;;;;;;9.98;4.82;;;;;;;24.02;67.70;98146.53;4980012;28;20074;-63
2021/08/16 05:18:52;;;;;;;11.18;5.35;;;;;;;24.07;68.42;98153.78;4981402;28;20089;-63
2021/08/16 05:21:18;;;;;;;10.32;5.43;;;;;;;23.83;69.89;98122.13;4972816;28;20038;-63
2021/08/16 05:23:43;;;;;;;12.20;6.82;;;;;;;24.04;71.46;98146.31;4995162;28;20814;-63
2021/08/16 05:26:08;;;;;;;9.02;6.30;;;;;;;23.90;70.41;98119.31;4967521;28;20093;-64
2021/08/16 05:28:34;;;;;;;10.00;4.70;;;;;;;24.08;68.98;98148.25;4976562;28;20609;-63
2021/08/16 05:30:59;;;;;;;9.82;5.00;;;;;;;23.98;69.63;98143.59;4971935;28;20034;-63
2021/08/16 05:33:25;;;;;;;8.85;4.57;;;;;;;23.76;68.11;98094.91;4974692;28;20038;-64
2021/08/16 05:35:50;;;;;;;8.90;5.22;;;;;;;24.02;69.63;98135.13;4975992;28;20066;-63
2021/08/16 05:38:15;;;;;;;11.80;4.72;;;;;;;24.02;68.98;98135.13;4975720;28;20030;-62
2021/08/16 05:40:41;;;;;;;7.85;4.40;;;;;;;23.96;67.33;98135.03;4958775;28;20068;-62
2021/08/16 05:43:06;;;;;;;8.77;5.38;;;;;;;23.89;67.29;98115.03;4972812;28;20026;-63
2021/08/16 05:45:32;;;;;;;9.25;5.10;;;;;;;24.13;67.58;98140.34;4973996;28;20035;-63
2021/08/16 05:47:57;;;;;;;8.38;5.20;;;;;;;24.25;66.42;98129.59;4989583;28;20042;-63
2021/08/16 05:50:23;;;;;;;11.52;4.88;;;;;;;24.01;67.09;98133.53;4971187;28;20041;-63
2021/08/16 05:52:50;;;;;;;8.88;4.93;;;;;;;24.05;67.00;98132.00;4973733;28;20030;-62
2021/08/16 05:55:15;;;;;;;7.95;5.40;;;;;;;24.14;67.32;98144.59;4967440;28;20038;-64
2021/08/16 05:57:40;;;;;;;9.70;5.30;;;;;;;24.10;67.64;98153.31;4981026;28;20031;-62
2021/08/16 06:00:06;;;;;;;9.60;5.13;;;;;;;23.91;68.02;98119.06;4978456;28;20054;-62
2021/08/16 06:02:33;;;;;;;9.25;5.10;;;;;;;24.08;69.05;98153.56;4984199;28;20116;-62
2021/08/16 06:04:58;;;;;;;9.57;4.78;;;;;;;24.02;68.09;98148.41;4979740;28;20042;-63
2021/08/16 06:07:24;;;;;;;8.00;4.13;;;;;;;24.11;67.61;98161.03;4982944;28;20030;-64
2021/08/16 06:09:49;;;;;;;10.05;4.93;;;;;;;24.09;68.95;98157.81;4977181;28;20473;-63
2021/08/16 06:12:15;;;;;;;9.90;5.15;;;;;;;23.98;68.87;98153.38;4982496;28;20034;-63
2021/08/16 06:14:40;;;;;;;7.80;4.45;;;;;;;23.86;68.41;98129.59;4970360;28;20034;-62
2021/08/16 06:17:05;;;;;;;9.30;5.00;;;;;;;24.11;67.57;98162.88;4975799;28;20093;-62
2021/08/16 06:19:33;;;;;;;10.05;5.05;;;;;;;24.03;68.12;98150.81;4984503;28;20040;-63
2021/08/16 06:21:58;;;;;;;8.45;4.50;;;;;;;24.02;66.41;98156.38;4989774;28;20022;-62
2021/08/16 06:24:24;;;;;;;9.43;5.18;;;;;;;24.10;66.33;98159.41;4982390;28;20036;-63
2021/08/16 06:26:49;;;;;;;8.15;4.85;;;;;;;24.14;66.18;98167.72;4978860;28;20165;-62
2021/08/16 06:29:15;;;;;;;9.27;4.95;;;;;;;23.88;66.63;98116.09;4980765;28;20118;-63
2021/08/16 06:31:40;;;;;;;6.97;4.65;;;;;;;24.23;66.58;98168.09;4981441;28;20026;-62
2021/08/16 06:34:08;;;;;;;10.38;5.20;;;;;;;24.10;68.53;98151.44;4992073;28;21470;-62
2021/08/16 06:36:40;;;;;;;9.13;5.20;;;;;;;24.13;68.79;98158.94;4983117;28;20029;-62
2021/08/16 06:39:08;;;;;;;10.00;5.43;;;;;;;23.94;70.90;98161.03;4977488;28;20038;-62
2021/08/16 06:41:34;;;;;;;10.38;5.22;;;;;;;24.07;71.12;98165.22;4978115;28;20026;-63
2021/08/16 06:44:00;;;;;;;10.38;5.70;;;;;;;24.02;70.31;98159.03;4973934;28;20038;-62
2021/08/16 06:46:25;;;;;;;9.88;5.57;;;;;;;23.95;69.48;98138.75;4979690;28;20027;-62
2021/08/16 06:48:50;;;;;;;14.13;5.40;;;;;;;24.11;69.72;98152.25;4978924;28;20056;-62
2021/08/16 06:51:16;;;;;;;13.70;5.70;;;;;;;24.18;69.14;98158.19;4981533;28;20026;-63
2021/08/16 06:53:41;;;;;;;9.30;5.28;;;;;;;24.11;69.19;98153.06;4974279;28;20105;-62
2021/08/16 06:56:06;;;;;;;13.02;6.05;;;;;;;23.80;69.84;98109.31;4980697;28;20037;-63
2021/08/16 06:58:33;;;;;;;10.80;5.60;;;;;;;24.19;70.57;98151.84;4974497;28;20034;-62
2021/08/16 07:00:59;;;;;;;11.82;5.75;;;;;;;24.14;69.88;98139.28;4960498;28;20716;-63
2021/08/16 07:03:25;;;;;;;11.95;6.22;;;;;;;24.16;71.46;98139.84;4967515;28;20038;-62
2021/08/16 07:05:50;;;;;;;10.25;5.63;;;;;;;24.08;71.64;98144.78;4968995;28;20393;-62
2021/08/16 07:08:16;;;;;;;12.18;5.93;;;;;;;24.10;70.60;98132.88;4973716;28;20041;-62
2021/08/16 07:10:42;;;;;;;11.80;5.85;;;;;;;23.99;70.30;98123.16;4966980;28;20374;-62
2021/08/16 07:13:09;;;;;;;11.02;5.45;;;;;;;24.03;69.71;98124.25;4984056;28;21366;-62
2021/08/16 07:15:35;;;;;;;14.07;5.68;;;;;;;24.10;69.31;98126.75;4964950;28;20031;-62
2021/08/16 07:18:02;;;;;;;11.18;6.03;;;;;;;24.09;69.05;98125.94;4969214;28;20037;-63
2021/08/16 07:20:28;;;;;;;12.05;6.20;;;;;;;24.13;69.65;98145.66;4973658;28;20520;-63
2021/08/16 07:22:53;;;;;;;11.07;5.53;;;;;;;24.13;70.19;98136.88;4972942;28;20031;-62
2021/08/16 07:25:19;;;;;;;9.45;5.30;;;;;;;24.15;68.32;98132.94;4980158;28;20420;-62
2021/08/16 07:27:44;;;;;;;12.75;6.13;;;;;;;24.13;67.27;98135.03;4970128;28;20803;-63
2021/08/16 07:30:10;;;;;;;13.57;5.47;;;;;;;24.06;67.02;98088.44;4973834;28;20267;-63
2021/08/16 07:32:36;;;;;;;10.27;5.38;;;;;;;24.18;67.13;98135.09;4979236;28;20045;-62
2021/08/16 07:35:01;;;;;;;11.65;6.80;;;;;;;24.11;68.20;98109.75;4983856;28;20113;-63
2021/08/16 07:37:26;;;;;;;10.60;5.72;;;;;;;24.21;67.04;98122.41;4981562;28;20038;-62
2021/08/16 07:39:52;;;;;;;10.50;5.55;;;;;;;24.13;67.91;98105.00;4978714;28;20035;-63
2021/08/16 07:42:18;;;;;;;12.35;5.78;;;;;;;24.08;68.02;98116.38;4977107;28;20442;-62
2021/08/16 07:44:44;;;;;;;10.32;5.30;;;;;;;24.14;67.98;98133.19;4960177;28;20035;-62
2021/08/16 07:47:09;;;;;;;10.85;5.68;;;;;;;24.10;67.57;98116.94;4984953;28;20050;-62
2021/08/16 07:49:35;;;;;;;12.20;6.07;;;;;;;23.86;67.72;98070.38;4978597;28;20026;-62
2021/08/16 07:52:01;;;;;;;10.88;5.78;;;;;;;24.18;67.65;98113.03;4961301;28;20026;-62
2021/08/16 07:54:27;;;;;;;12.13;6.05;;;;;;;24.17;67.84;98098.97;4971326;28;20051;-62
2021/08/16 07:56:52;;;;;;;13.50;5.70;;;;;;;24.02;67.20;98066.88;4985478;28;20070;-62
2021/08/16 07:59:18;;;;;;;10.65;5.38;;;;;;;24.23;66.90;98105.16;4972296;28;20362;-62
2021/08/16 08:01:44;;;;;;;13.35;6.47;;;;;;;23.94;67.77;98057.50;4982341;28;20038;-62
2021/08/16 08:04:09;;;;;;;12.93;5.65;;;;;;;24.22;68.04;98097.41;4977170;28;20070;-62
2021/08/16 08:06:35;;;;;;;12.00;5.85;;;;;;;24.26;67.49;98106.50;4973102;28;20027;-63
2021/08/16 08:09:00;;;;;;;14.00;5.50;;;;;;;24.30;67.40;98110.28;4976584;28;20045;-62
2021/08/16 08:11:26;;;;;;;14.27;6.25;;;;;;;23.97;67.84;98057.00;4972213;28;20094;-62
2021/08/16 08:13:51;;;;;;;15.57;6.10;;;;;;;24.45;66.83;98107.81;4969697;28;20040;-62
2021/08/16 08:16:16;;;;;;;11.75;5.53;;;;;;;24.34;66.30;98101.56;4969715;28;20042;-63
2021/08/16 08:18:42;;;;;;;11.85;6.30;;;;;;;24.38;67.05;98115.97;4973108;28;20125;-63
2021/08/16 08:21:07;;;;;;;11.55;5.78;;;;;;;24.61;66.27;98121.34;4971983;28;20110;-60
2021/08/16 08:23:33;;;;;;;11.43;5.53;;;;;;;24.84;65.85;98117.59;4978477;28;20433;-62
2021/08/16 08:25:58;;;;;;;11.68;5.63;;;;;;;24.84;65.62;98110.41;4984952;28;20041;-63
2021/08/16 08:28:23;;;;;;;11.48;5.82;;;;;;;24.62;66.16;98089.16;4977205;28;20466;-63
2021/08/16 08:30:49;;;;;;;12.35;5.80;;;;;;;24.85;65.85;98096.06;4976801;28;20030;-63
2021/08/16 08:33:15;;;;;;;11.65;5.30;;;;;;;25.14;65.29;98123.22;4970491;28;20038;-62
2021/08/16 08:35:48;;;;;;;10.50;5.53;;;;;;;25.24;65.21;98121.75;4969326;28;20104;-62
2021/08/16 08:38:14;;;;;;;13.45;5.88;;;;;;;25.71;63.84;98121.09;4971397;28;20054;-62
2021/08/16 08:40:40;;;;;;;11.02;5.07;;;;;;;26.40;60.49;98104.19;4974003;28;20540;-63
2021/08/16 08:43:08;;;;;;;10.40;5.80;;;;;;;26.98;57.74;98103.31;4985591;28;20122;-63
2021/08/16 08:45:34;;;;;;;11.85;5.05;;;;;;;27.42;57.16;98102.91;4979511;28;20106;-62
2021/08/16 08:47:59;;;;;;;11.18;5.35;;;;;;;27.39;57.60;98103.41;4984084;28;20552;-63
2021/08/16 08:50:25;;;;;;;10.18;5.63;;;;;;;27.61;56.11;98111.16;4975503;28;20113;-62
2021/08/16 08:52:53;;;;;;;11.13;4.95;;;;;;;28.08;54.58;98069.19;4983186;28;20031;-63
2021/08/16 08:55:19;;;;;;;11.27;5.32;;;;;;;28.17;54.36;98094.25;4992900;28;20038;-63
2021/08/16 08:57:44;;;;;;;13.63;5.68;;;;;;;28.15;53.28;98097.19;4978194;28;20042;-63
2021/08/16 09:00:15;;;;;;;11.05;5.00;;;;;;;27.98;54.40;98096.69;4983431;28;20041;-62
2021/08/16 09:02:41;;;;;;;10.93;5.13;;;;;;;28.72;53.85;98092.44;4976692;28;20089;-63
2021/08/16 09:05:07;;;;;;;13.43;5.28;;;;;;;28.64;54.13;98086.88;4975744;28;20042;-63
2021/08/16 09:07:37;;;;;;;12.23;5.28;;;;;;;28.61;54.14;98085.56;4981832;28;20074;-63
2021/08/16 09:10:05;;;;;;;13.95;5.35;;;;;;;27.68;55.24;98089.53;4988393;28;20037;-62
2021/08/16 09:12:33;;;;;;;13.50;5.45;;;;;;;27.50;55.52;98089.00;4983904;28;20035;-62
2021/08/16 09:14:59;;;;;;;12.70;5.50;;;;;;;27.33;57.31;98083.16;4978857;28;20038;-63
2021/08/16 09:17:34;;;;;;;9.45;5.32;;;;;;;27.06;57.42;98049.47;4980600;28;20058;-62
2021/08/16 09:20:01;;;;;;;12.70;5.10;;;;;;;26.81;57.67;98052.91;4971030;28;20588;-63
2021/08/16 09:22:31;;;;;;;14.32;5.55;;;;;;;26.80;58.07;98084.09;4974998;28;20089;-63
2021/08/16 09:25:00;;;;;;;11.57;5.32;;;;;;;26.84;58.23;98071.84;4978805;28;20034;-63
2021/08/16 09:27:26;;;;;;;;;;;;;;;27.09;57.67;98075.63;4973318;28;20037;-63
2021/08/16 09:29:51;;;;;;;13.95;5.78;;;;;;;26.55;59.23;98026.16;4973653;28;20827;-63
2021/08/16 09:32:17;;;;;;;13.85;5.95;;;;;;;26.82;59.53;98075.84;4992925;28;20110;-63
2021/08/16 09:34:47;;;;;;;11.02;5.63;;;;;;;26.72;59.79;98071.28;4979049;28;20449;-62
2021/08/16 09:37:20;;;;;;;13.35;5.72;;;;;;;26.53;59.92;98024.81;4989148;28;20030;-63
2021/08/16 09:40:17;;;;;;;13.05;5.32;;;;;;;26.67;60.28;98023.28;4974650;28;20038;-62
2021/08/16 09:42:54;;;;;;;13.30;5.97;;;;;;;26.72;60.53;98051.81;4977618;28;20030;-62
2021/08/16 09:45:29;;;;;;;12.35;5.82;;;;;;;26.92;60.92;98059.06;4976920;28;20034;-62
2021/08/16 09:47:58;;;;;;;11.05;5.53;;;;;;;26.81;60.37;98013.69;4984674;28;20029;-63
2021/08/16 09:50:34;;;;;;;11.87;5.33;;;;;;;27.00;59.58;98053.22;4976298;28;20030;-63
2021/08/16 09:53:10;;;;;;;13.07;5.90;;;;;;;26.94;60.06;98040.91;4975711;28;20772;-61
2021/08/16 09:55:40;;;;;;;12.50;6.13;;;;;;;26.81;60.27;98032.34;4977596;28;20022;-63
2021/08/16 09:58:16;;;;;;;12.43;6.03;;;;;;;26.79;61.00;98042.50;4982393;28;20294;-63
2021/08/16 10:00:46;;;;;;;12.23;6.20;;;;;;;27.13;61.39;98034.00;4988096;28;20026;-62
2021/08/16 10:03:12;;;;;;;13.82;6.35;;;;;;;26.85;60.01;97989.97;4979468;28;20452;-62
2021/08/16 10:05:42;;;;;;;14.07;6.32;;;;;;;27.10;60.05;98023.84;4960227;28;20737;-63
2021/08/16 10:08:09;;;;;;;13.25;6.53;;;;;;;27.01;58.86;98023.56;4975281;28;20039;-63
2021/08/16 10:10:36;;;;;;;10.85;5.85;;;;;;;27.06;58.95;98022.00;4976236;28;20129;-62
2021/08/16 10:13:03;;;;;;;15.20;6.15;;;;;;;27.10;58.53;98013.19;4974975;28;20085;-63
2021/08/16 10:15:30;;;;;;;14.52;6.93;;;;;;;27.12;57.02;98018.25;4970822;28;20064;-63
2021/08/16 10:17:57;;;;;;;15.50;5.85;;;;;;;27.22;57.22;98003.03;4963536;28;20085;-62
2021/08/16 10:20:27;;;;;;;15.73;7.30;;;;;;;27.40;54.43;98003.59;4963808;28;20556;-62
2021/08/16 10:22:53;;;;;;;14.18;6.85;;;;;;;27.15;56.13;97961.69;4972479;28;20030;-63
2021/08/16 10:25:19;;;;;;;15.07;6.93;;;;;;;27.49;56.58;97998.50;4979161;28;20061;-62
2021/08/16 10:27:45;;;;;;;13.65;6.63;;;;;;;27.71;56.43;97990.97;4974122;28;20077;-63
2021/08/16 10:30:16;;;;;;;22.75;7.70;;;;;;;28.13;50.86;97989.78;4958362;28;20496;-63
2021/08/16 10:32:41;;;;;;;20.17;7.07;;;;;;;28.48;50.12;97977.31;4976883;28;20695;-63
2021/08/16 10:35:16;;;;;;;18.85;7.25;;;;;;;28.60;48.64;97976.19;4973540;28;20038;-63
2021/08/16 10:37:44;;;;;;;19.45;6.93;;;;;;;28.67;47.99;97982.81;4956773;28;21518;-63
2021/08/16 10:40:26;;;;;;;22.73;7.00;;;;;;;28.68;45.74;97956.88;4973974;28;20038;-63
2021/08/16 10:42:53;;;;;;;24.23;6.72;;;;;;;28.64;47.57;97958.50;4967513;28;20045;-62
2021/08/16 10:45:27;;;;;;;22.60;6.93;;;;;;;28.71;48.36;97957.13;4975402;28;20026;-62
2021/08/16 10:48:06;;;;;;;19.90;6.53;;;;;;;28.74;47.62;97940.50;4992391;28;20112;-63
2021/08/16 10:50:33;;;;;;;18.35;6.78;;;;;;;28.76;49.06;97942.91;4968927;28;20477;-63
2021/08/16 10:53:08;;;;;;;25.63;7.47;;;;;;;28.83;49.25;97935.34;4963818;28;20030;-63
2021/08/16 10:55:39;;;;;;;21.13;7.32;;;;;;;28.75;48.46;97928.75;4972435;28;20022;-62
2021/08/16 10:58:08;;;;;;;20.00;6.30;;;;;;;28.77;48.72;97917.75;4974701;28;20027;-63
2021/08/16 11:00:33;;;;;;;;;;;;;;;28.76;49.64;97916.16;4971828;28;20031;-63
2021/08/16 11:02:58;;;;;;;17.90;6.63;;;;;;;28.78;48.88;97902.50;4976224;28;19964;-63
2021/08/16 11:05:35;;;;;;;24.73;7.10;;;;;;;28.70;49.27;97907.38;4968899;28;20266;-63
2021/08/16 11:08:03;;;;;;;20.33;7.93;;;;;;;28.30;48.16;97825.59;4964607;28;20500;-62
2021/08/16 11:10:42;;;;;;;18.13;6.57;;;;;;;28.53;48.91;97858.84;4985234;28;20026;-63
2021/08/16 11:13:10;;;;;;;22.67;7.18;;;;;;;28.73;49.17;97882.75;4972605;28;20079;-62
2021/08/16 11:15:37;;;;;;;19.13;7.20;;;;;;;28.80;49.17;97889.66;4966435;28;20058;-63
2021/08/16 11:18:20;;;;;;;17.27;7.50;;;;;;;28.78;48.82;97875.75;4975395;28;20042;-63
2021/08/16 11:20:57;;;;;;;20.02;7.35;;;;;;;28.90;48.81;97873.50;4980495;28;20508;-62